createdAt,value
2022-08-28T00:01:57.305Z,102091.88
2022-08-28T00:04:23.748Z,102093.72
2022-08-28T00:06:50.170Z,102099.38
2022-08-28T00:09:16.612Z,102088.31
2022-08-28T00:11:43.136Z,102096.84
2022-08-28T00:14:10.652Z,102093.91
2022-08-28T00:16:38.532Z,102091.03
2022-08-28T00:19:05.870Z,102091.91
2022-08-28T00:21:37.068Z,102093.13
2022-08-28T00:24:03.772Z,102100.22
2022-08-28T00:26:48.802Z,102101.69
2022-08-28T00:29:15.194Z,102097.13
2022-08-28T00:31:41.674Z,102097.84
2022-08-28T00:34:09.348Z,102089.31
2022-08-28T00:36:37.153Z,102091.16
2022-08-28T00:39:05.877Z,102089.69
2022-08-28T00:41:34.441Z,102089.25
2022-08-28T00:44:21.902Z,102094.03
2022-08-28T00:46:50.944Z,102093.16
2022-08-28T00:49:21.058Z,102082.47
2022-08-28T00:52:07.409Z,102087.38
2022-08-28T00:54:38.701Z,102092.03
2022-08-28T00:57:08.748Z,102087.88
2022-08-28T00:59:36.233Z,102092.78
2022-08-28T01:02:03.642Z,102089.09
2022-08-28T01:04:32.318Z,102091.13
2022-08-28T01:07:02.202Z,102095.78
2022-08-28T01:09:31.807Z,102091.75
2022-08-28T01:12:03.518Z,102086.47
2022-08-28T01:14:32.073Z,102093.16
2022-08-28T01:16:58.854Z,102085.25
2022-08-28T01:19:56.955Z,102090.16
2022-08-28T01:22:44.331Z,102087.72
2022-08-28T01:25:16.680Z,102089.19
2022-08-28T01:27:43.188Z,102090.59
2022-08-28T01:30:18.005Z,102092.69
2022-08-28T01:32:48.155Z,102094.72
2022-08-28T01:35:17.867Z,102098.81
2022-08-28T01:37:44.874Z,102101.28
2022-08-28T01:40:14.962Z,102098.03
2022-08-28T01:42:43.453Z,102098.59
2022-08-28T01:45:13.624Z,102097.31
2022-08-28T01:47:41.597Z,102096.28
2022-08-28T01:50:10.731Z,102089.38
2022-08-28T01:52:38.987Z,102088.25
2022-08-28T01:55:07.162Z,102089.56
2022-08-28T01:57:34.976Z,102088.59
2022-08-28T02:00:01.676Z,102085.63
2022-08-28T02:02:29.185Z,102087.75
2022-08-28T02:04:55.577Z,102091.06
2022-08-28T02:07:21.949Z,102084.13
2022-08-28T02:09:48.336Z,102088.59
2022-08-28T02:12:14.756Z,102088.97
2022-08-28T02:14:41.205Z,102089.31
2022-08-28T02:17:07.601Z,102089.13
2022-08-28T02:19:34.134Z,102090.00
2022-08-28T02:22:00.587Z,102086.69
2022-08-28T02:24:27.039Z,102087.63
2022-08-28T02:26:53.547Z,102092.97
2022-08-28T02:29:19.973Z,102093.69
2022-08-28T02:31:46.350Z,102091.03
2022-08-28T02:34:12.750Z,102087.44
2022-08-28T02:36:42.559Z,102097.34
2022-08-28T02:39:09.378Z,102096.31
2022-08-28T02:41:35.912Z,102100.69
2022-08-28T02:44:02.487Z,102098.13
2022-08-28T02:46:29.089Z,102107.69
2022-08-28T02:48:56.160Z,102106.38
2022-08-28T02:51:23.157Z,102103.41
2022-08-28T02:53:50.442Z,102107.31
2022-08-28T02:56:17.145Z,102103.31
2022-08-28T02:58:44.134Z,102104.91
2022-08-28T03:01:13.439Z,102110.13
2022-08-28T03:03:41.438Z,102103.47
2022-08-28T03:06:08.709Z,102098.75
2022-08-28T03:08:35.209Z,102101.75
2022-08-28T03:11:01.788Z,102102.25
2022-08-28T03:13:28.461Z,102106.09
2022-08-28T03:15:55.650Z,102100.75
2022-08-28T03:18:23.225Z,102102.78
2022-08-28T03:20:49.662Z,102114.53
2022-08-28T03:23:27.806Z,102107.53
2022-08-28T03:26:05.051Z,102111.53
2022-08-28T03:28:35.041Z,102108.31
2022-08-28T03:31:02.402Z,102108.75
2022-08-28T03:33:28.880Z,102108.41
2022-08-28T03:35:55.659Z,102109.97
2022-08-28T03:38:22.515Z,102111.81
2022-08-28T03:40:52.132Z,102117.47
2022-08-28T03:43:22.253Z,102118.38
2022-08-28T03:45:57.596Z,102119.03
2022-08-28T03:48:26.328Z,102116.19
2022-08-28T03:50:53.863Z,102123.97
2022-08-28T03:53:23.978Z,102119.03
2022-08-28T03:55:51.206Z,102125.53
2022-08-28T03:58:18.846Z,102116.53
2022-08-28T04:00:46.150Z,102120.72
2022-08-28T04:03:13.790Z,102117.47
2022-08-28T04:05:41.438Z,102127.09
2022-08-28T04:08:08.133Z,102128.31
2022-08-28T04:10:35.797Z,102129.31
2022-08-28T04:13:03.210Z,102125.50
2022-08-28T04:15:29.620Z,102133.28
2022-08-28T04:17:56.472Z,102138.63
2022-08-28T04:20:23.096Z,102130.06
2022-08-28T04:22:49.979Z,102132.16
2022-08-28T04:25:22.385Z,102131.94
2022-08-28T04:27:50.910Z,102133.03
2022-08-28T04:30:18.737Z,102134.28
2022-08-28T04:32:45.563Z,102143.56
2022-08-28T04:35:13.108Z,102142.66
2022-08-28T04:37:40.453Z,102146.00
2022-08-28T04:40:10.733Z,102149.09
2022-08-28T04:42:39.792Z,102143.56
2022-08-28T04:45:06.958Z,102150.94
2022-08-28T04:47:39.262Z,102157.94
2022-08-28T04:50:06.975Z,102168.25
2022-08-28T04:52:33.531Z,102162.75
2022-08-28T04:55:00.120Z,102170.09
2022-08-28T04:57:26.644Z,102173.16
2022-08-28T04:59:53.148Z,102177.59
2022-08-28T05:02:19.865Z,102173.97
2022-08-28T05:04:47.286Z,102170.56
2022-08-28T05:07:14.313Z,102174.25
2022-08-28T05:09:40.701Z,102170.25
2022-08-28T05:12:07.250Z,102167.94
2022-08-28T05:14:33.699Z,102167.78
2022-08-28T05:17:00.123Z,102175.00
2022-08-28T05:19:28.007Z,102165.00
2022-08-28T05:21:54.882Z,102164.78
2022-08-28T05:24:22.396Z,102167.94
2022-08-28T05:26:48.982Z,102162.66
2022-08-28T05:29:16.726Z,102164.06
2022-08-28T05:31:43.389Z,102167.00
2022-08-28T05:34:10.490Z,102174.41
2022-08-28T05:36:38.148Z,102174.31
2022-08-28T05:39:08.092Z,102171.91
2022-08-28T05:41:34.606Z,102173.41
2022-08-28T05:44:04.705Z,102173.59
2022-08-28T05:46:31.711Z,102176.25
2022-08-28T05:49:00.130Z,102175.81
2022-08-28T05:51:27.538Z,102175.28
2022-08-28T05:53:54.906Z,102169.28
2022-08-28T05:56:25.796Z,102170.44
2022-08-28T05:58:52.611Z,102168.75
2022-08-28T06:01:28.583Z,102180.50
2022-08-28T06:03:58.572Z,102177.19
2022-08-28T06:06:27.513Z,102183.13
2022-08-28T06:09:00.126Z,102188.03
2022-08-28T06:11:30.348Z,102184.66
2022-08-28T06:14:02.599Z,102181.84
2022-08-28T06:16:31.119Z,102178.34
2022-08-28T06:18:58.113Z,102181.97
2022-08-28T06:21:24.928Z,102187.88
2022-08-28T06:23:51.893Z,102186.81
2022-08-28T06:26:18.619Z,102183.28
2022-08-28T06:28:45.021Z,102191.97
2022-08-28T06:31:23.772Z,102188.31
2022-08-28T06:33:56.084Z,102186.28
2022-08-28T06:36:27.456Z,102185.06
2022-08-28T06:38:54.952Z,102190.81
2022-08-28T06:41:21.839Z,102188.94
2022-08-28T06:43:48.258Z,102191.22
2022-08-28T06:46:14.778Z,102184.75
2022-08-28T06:48:41.423Z,102189.38
2022-08-28T06:51:09.938Z,102188.19
2022-08-28T06:53:37.757Z,102189.94
2022-08-28T06:56:26.570Z,102179.66
2022-08-28T06:58:55.090Z,102176.28
2022-08-28T07:01:25.719Z,102191.06
2022-08-28T07:03:53.882Z,102186.00
2022-08-28T07:06:23.335Z,102187.44
2022-08-28T07:08:51.012Z,102183.72
2022-08-28T07:11:26.202Z,102191.47
2022-08-28T07:13:53.870Z,102184.50
2022-08-28T07:16:22.403Z,102192.22
2022-08-28T07:18:48.962Z,102196.19
2022-08-28T07:21:15.602Z,102196.31
2022-08-28T07:23:44.217Z,102200.66
2022-08-28T07:26:17.646Z,102209.91
2022-08-28T07:28:45.352Z,102215.00
2022-08-28T07:31:18.530Z,102216.63
2022-08-28T07:33:45.358Z,102222.88
2022-08-28T07:36:15.760Z,102217.66
2022-08-28T07:38:52.420Z,102216.66
2022-08-28T07:41:26.551Z,102223.81
2022-08-28T07:44:11.830Z,102221.09
2022-08-28T07:46:39.561Z,102228.97
2022-08-28T07:49:07.604Z,102223.44
2022-08-28T07:51:35.066Z,102232.28
2022-08-28T07:54:03.818Z,102220.75
2022-08-28T07:56:30.948Z,102225.19
2022-08-28T07:58:58.806Z,102233.31
2022-08-28T08:01:27.086Z,102225.91
2022-08-28T08:03:55.946Z,102225.91
2022-08-28T08:06:33.831Z,102227.72
2022-08-28T08:09:01.863Z,102230.84
2022-08-28T08:11:28.431Z,102230.13
2022-08-28T08:14:03.813Z,102233.34
2022-08-28T08:16:34.597Z,102237.31
2022-08-28T08:19:02.332Z,102237.72
2022-08-28T08:21:30.559Z,102237.50
2022-08-28T08:23:58.264Z,102249.47
2022-08-28T08:26:28.217Z,102250.47
2022-08-28T08:28:56.618Z,102243.34
2022-08-28T08:31:32.838Z,102238.38
2022-08-28T08:34:01.968Z,102245.59
2022-08-28T08:36:29.724Z,102243.63
2022-08-28T08:38:59.848Z,102250.00
2022-08-28T08:41:38.974Z,102242.25
2022-08-28T08:44:13.828Z,102243.03
2022-08-28T08:46:49.453Z,102243.19
2022-08-28T08:49:22.610Z,102246.66
2022-08-28T08:52:04.999Z,102246.50
2022-08-28T08:54:31.716Z,102240.72
2022-08-28T08:57:02.162Z,102245.25
2022-08-28T08:59:31.908Z,102245.81
2022-08-28T09:02:07.204Z,102242.41
2022-08-28T09:04:42.858Z,102243.47
2022-08-28T09:07:27.343Z,102248.50
2022-08-28T09:09:56.164Z,102247.66
2022-08-28T09:12:27.959Z,102252.38
2022-08-28T09:15:17.561Z,102254.34
2022-08-28T09:17:54.478Z,102248.19
2022-08-28T09:20:32.641Z,102247.69
2022-08-28T09:23:00.275Z,102244.50
2022-08-28T09:25:51.430Z,102242.91
2022-08-28T09:28:28.195Z,102252.44
2022-08-28T09:31:31.744Z,102237.97
2022-08-28T09:34:19.436Z,102248.66
2022-08-28T09:36:46.101Z,102245.44
2022-08-28T09:39:19.959Z,102254.56
2022-08-28T09:42:12.172Z,102249.38
2022-08-28T09:45:14.941Z,102259.44
2022-08-28T09:47:48.828Z,102255.09
2022-08-28T09:50:23.718Z,102252.84
2022-08-28T09:52:51.878Z,102244.13
2022-08-28T09:55:27.093Z,102261.59
2022-08-28T09:57:54.554Z,102247.59
2022-08-28T10:00:22.769Z,102266.88
2022-08-28T10:03:17.298Z,102256.22
2022-08-28T10:06:01.630Z,102257.69
2022-08-28T10:08:56.369Z,102262.69
2022-08-28T10:12:01.778Z,102263.53
2022-08-28T10:14:53.060Z,102265.28
2022-08-28T10:17:49.929Z,102265.84
2022-08-28T10:20:39.980Z,102267.41
2022-08-28T10:23:33.741Z,102261.50
2022-08-28T10:26:23.778Z,102258.22
2022-08-28T10:29:18.156Z,102267.06
2022-08-28T10:32:07.219Z,102260.19
2022-08-28T10:35:18.758Z,102269.81
2022-08-28T10:37:51.297Z,102262.47
2022-08-28T10:40:29.053Z,102263.69
2022-08-28T10:43:08.762Z,102264.88
2022-08-28T10:45:35.660Z,102260.94
2022-08-28T10:48:18.570Z,102260.94
2022-08-28T10:50:49.211Z,102261.31
2022-08-28T10:53:21.286Z,102257.78
2022-08-28T10:56:02.701Z,102259.91
2022-08-28T10:58:34.198Z,102270.44
2022-08-28T11:01:05.745Z,102275.41
2022-08-28T11:03:40.618Z,102272.13
2022-08-28T11:06:28.538Z,102273.59
2022-08-28T11:08:58.567Z,102281.28
2022-08-28T11:11:46.561Z,102273.97
2022-08-28T11:14:24.123Z,102275.56
2022-08-28T11:16:51.396Z,102271.16
2022-08-28T11:19:17.951Z,102258.97
2022-08-28T11:22:00.186Z,102258.25
2022-08-28T11:24:44.113Z,102277.00
2022-08-28T11:27:26.856Z,102282.81
2022-08-28T11:29:58.317Z,102283.63
2022-08-28T11:32:39.027Z,102286.25
2022-08-28T11:35:37.886Z,102278.66
2022-08-28T11:38:04.946Z,102276.41
2022-08-28T11:40:31.793Z,102278.38
2022-08-28T11:43:17.039Z,102287.25
2022-08-28T11:45:45.816Z,102281.28
2022-08-28T11:48:22.820Z,102282.44
2022-08-28T11:50:57.004Z,102280.50
2022-08-28T11:53:32.550Z,102284.28
2022-08-28T11:56:31.817Z,102286.53
2022-08-28T11:59:07.940Z,102292.03
2022-08-28T12:01:36.810Z,102292.25
2022-08-28T12:04:08.426Z,102290.94
2022-08-28T12:06:54.468Z,102289.09
2022-08-28T12:09:43.113Z,102288.91
2022-08-28T12:12:21.616Z,102288.66
2022-08-28T12:14:47.961Z,102284.75
2022-08-28T12:17:17.328Z,102276.00
2022-08-28T12:19:56.377Z,102274.38
2022-08-28T12:22:26.508Z,102272.19
2022-08-28T12:25:04.528Z,102284.84
2022-08-28T12:27:31.825Z,102285.38
2022-08-28T12:30:01.937Z,102287.69
2022-08-28T12:32:39.491Z,102284.09
2022-08-28T12:35:20.549Z,102284.31
2022-08-28T12:38:09.285Z,102284.03
2022-08-28T12:40:41.567Z,102284.84
2022-08-28T12:43:11.241Z,102288.31
2022-08-28T12:46:02.399Z,102284.59
2022-08-28T12:48:33.045Z,102287.06
2022-08-28T12:51:06.044Z,102280.03
2022-08-28T12:53:40.618Z,102269.44
2022-08-28T12:56:10.153Z,102267.59
2022-08-28T12:58:39.380Z,102269.06
2022-08-28T13:01:27.487Z,102276.22
2022-08-28T13:04:01.422Z,102274.13
2022-08-28T13:06:35.882Z,102274.41
2022-08-28T13:09:14.381Z,102280.91
2022-08-28T13:11:46.548Z,102283.97
2022-08-28T13:14:13.128Z,102284.22
2022-08-28T13:16:43.102Z,102284.63
2022-08-28T13:19:14.515Z,102273.69
2022-08-28T13:21:46.854Z,102275.75
2022-08-28T13:24:27.086Z,102270.81
2022-08-28T13:27:16.521Z,102276.59
2022-08-28T13:29:59.845Z,102285.28
2022-08-28T13:32:27.995Z,102293.69
2022-08-28T13:35:09.144Z,102277.31
2022-08-28T13:37:58.697Z,102283.78
2022-08-28T13:40:56.878Z,102288.19
2022-08-28T13:43:26.295Z,102274.00
2022-08-28T13:45:53.453Z,102275.16
2022-08-28T13:48:25.824Z,102274.56
2022-08-28T13:51:07.060Z,102263.31
2022-08-28T13:53:36.521Z,102261.66
2022-08-28T13:56:03.419Z,102259.22
2022-08-28T13:58:29.873Z,102257.78
2022-08-28T14:00:56.533Z,102253.00
2022-08-28T14:03:39.002Z,102257.06
2022-08-28T14:06:14.595Z,102267.50
2022-08-28T14:08:43.753Z,102273.06
2022-08-28T14:11:12.782Z,102260.97
2022-08-28T14:13:40.873Z,102271.00
2022-08-28T14:16:16.654Z,102268.44
2022-08-28T14:18:43.196Z,102266.16
2022-08-28T14:21:09.629Z,102268.44
2022-08-28T14:23:36.028Z,102263.53
2022-08-28T14:26:04.499Z,102261.59
2022-08-28T14:28:30.938Z,102262.59
2022-08-28T14:30:57.356Z,102253.19
2022-08-28T14:33:23.817Z,102260.19
2022-08-28T14:35:50.467Z,102251.34
2022-08-28T14:38:17.135Z,102251.09
2022-08-28T14:40:44.424Z,102251.72
2022-08-28T14:43:12.404Z,102246.56
2022-08-28T14:45:49.659Z,102243.13
2022-08-28T14:48:18.317Z,102249.13
2022-08-28T14:50:47.131Z,102243.44
2022-08-28T14:53:13.942Z,102250.38
2022-08-28T14:55:50.155Z,102249.56
2022-08-28T14:58:18.601Z,102244.00
2022-08-28T15:00:48.727Z,102245.19
2022-08-28T15:03:16.235Z,102245.66
2022-08-28T15:05:42.853Z,102248.81
2022-08-28T15:08:14.878Z,102252.84
2022-08-28T15:10:42.610Z,102263.50
2022-08-28T15:13:10.431Z,102258.25
2022-08-28T15:15:39.436Z,102244.34
2022-08-28T15:18:07.256Z,102251.97
2022-08-28T15:20:45.012Z,102257.91
2022-08-28T15:23:13.866Z,102257.97
2022-08-28T15:25:40.803Z,102263.59
2022-08-28T15:28:07.424Z,102255.47
2022-08-28T15:30:34.597Z,102257.38
2022-08-28T15:33:01.581Z,102257.94
2022-08-28T15:35:28.233Z,102250.50
2022-08-28T15:37:54.705Z,102256.47
2022-08-28T15:40:40.110Z,102256.41
2022-08-28T15:43:07.613Z,102253.44
2022-08-28T15:45:39.158Z,102250.13
2022-08-28T15:48:06.755Z,102240.06
2022-08-28T15:50:33.563Z,102238.09
2022-08-28T15:52:59.951Z,102234.19
2022-08-28T15:55:26.854Z,102240.91
2022-08-28T15:57:54.488Z,102239.31
2022-08-28T16:00:21.644Z,102240.50
2022-08-28T16:02:48.121Z,102244.28
2022-08-28T16:05:15.288Z,102239.75
2022-08-28T16:07:42.059Z,102233.53
2022-08-28T16:10:09.921Z,102232.00
2022-08-28T16:12:39.229Z,102229.91
2022-08-28T16:15:06.891Z,102235.75
2022-08-28T16:17:33.305Z,102231.91
2022-08-28T16:19:59.821Z,102224.50
2022-08-28T16:22:26.248Z,102229.50
2022-08-28T16:24:52.689Z,102237.06
2022-08-28T16:27:19.325Z,102239.06
2022-08-28T16:29:49.547Z,102230.53
2022-08-28T16:32:19.350Z,102237.75
2022-08-28T16:34:45.755Z,102230.84
2022-08-28T16:37:12.579Z,102227.97
2022-08-28T16:39:38.977Z,102215.00
2022-08-28T16:42:05.506Z,102218.69
2022-08-28T16:44:32.092Z,102231.06
2022-08-28T16:46:58.604Z,102237.13
2022-08-28T16:49:25.259Z,102229.34
2022-08-28T16:51:51.743Z,102226.59
2022-08-28T16:54:18.449Z,102233.38
2022-08-28T16:56:45.520Z,102229.81
2022-08-28T16:59:12.606Z,102226.41
2022-08-28T17:01:40.859Z,102222.59
2022-08-28T17:04:10.011Z,102228.44
2022-08-28T17:06:36.417Z,102223.69
2022-08-28T17:09:02.961Z,102220.50
2022-08-28T17:11:29.459Z,102224.66
2022-08-28T17:13:56.641Z,102217.09
2022-08-28T17:16:23.994Z,102220.31
2022-08-28T17:18:52.657Z,102217.31
2022-08-28T17:24:04.631Z,102216.22
2022-08-28T17:26:31.051Z,102229.13
2022-08-28T17:28:57.464Z,102228.84
2022-08-28T17:31:24.073Z,102227.13
2022-08-28T17:33:50.675Z,102232.94
2022-08-28T17:36:30.698Z,102241.06
2022-08-28T17:39:02.089Z,102236.13
2022-08-28T17:41:28.536Z,102230.75
2022-08-28T17:43:54.978Z,102234.44
2022-08-28T17:46:21.403Z,102238.03
2022-08-28T17:48:53.615Z,102247.31
2022-08-28T17:51:23.487Z,102246.22
2022-08-28T17:54:10.170Z,102244.06
2022-08-28T17:56:36.601Z,102245.19
2022-08-28T17:59:03.083Z,102247.06
2022-08-28T18:01:29.530Z,102244.19
2022-08-28T18:03:56.020Z,102242.88
2022-08-28T18:06:22.830Z,102242.91
2022-08-28T18:08:51.731Z,102245.81
2022-08-28T18:11:19.066Z,102243.31
2022-08-28T18:13:46.281Z,102246.09
2022-08-28T18:16:12.891Z,102240.63
2022-08-28T18:18:39.476Z,102241.56
2022-08-28T18:21:06.036Z,102244.06
2022-08-28T18:23:32.709Z,102247.47
2022-08-28T18:25:59.105Z,102241.69
2022-08-28T18:28:26.573Z,102240.69
2022-08-28T18:30:53.681Z,102237.25
2022-08-28T18:33:22.736Z,102247.81
2022-08-28T18:35:50.407Z,102243.78
2022-08-28T18:38:18.330Z,102248.09
2022-08-28T18:40:45.245Z,102251.44
2022-08-28T18:43:12.391Z,102251.97
2022-08-28T18:45:38.923Z,102247.94
2022-08-28T18:48:07.855Z,102250.13
2022-08-28T18:50:35.456Z,102250.44
2022-08-28T18:53:02.338Z,102257.16
2022-08-28T18:55:30.987Z,102252.88
2022-08-28T18:57:59.916Z,102255.22
2022-08-28T19:00:26.865Z,102257.56
2022-08-28T19:02:53.924Z,102256.59
2022-08-28T19:05:21.207Z,102253.88
2022-08-28T19:07:48.522Z,102263.22
2022-08-28T19:10:32.594Z,102270.81
2022-08-28T19:13:01.013Z,102273.94
2022-08-28T19:15:28.342Z,102275.41
2022-08-28T19:17:55.078Z,102277.63
2022-08-28T19:20:21.796Z,102275.38
2022-08-28T19:22:48.832Z,102277.72
2022-08-28T19:25:27.552Z,102291.81
2022-08-28T19:27:58.917Z,102291.31
2022-08-28T19:30:26.999Z,102292.78
2022-08-28T19:32:53.443Z,102286.81
2022-08-28T19:35:19.977Z,102290.69
2022-08-28T19:37:46.907Z,102291.25
2022-08-28T19:40:14.060Z,102287.22
2022-08-28T19:42:40.807Z,102288.44
2022-08-28T19:45:09.549Z,102292.53
2022-08-28T19:47:37.258Z,102293.56
2022-08-28T19:50:05.423Z,102293.84
2022-08-28T19:52:33.081Z,102296.06
2022-08-28T19:55:00.834Z,102303.69
2022-08-28T19:57:27.306Z,102307.63
2022-08-28T19:59:53.676Z,102304.13
2022-08-28T20:02:22.721Z,102305.47
2022-08-28T20:04:49.188Z,102299.16
2022-08-28T20:07:15.588Z,102306.19
2022-08-28T20:09:42.042Z,102299.25
2022-08-28T20:12:08.423Z,102306.97
2022-08-28T20:14:35.530Z,102325.19
2022-08-28T20:17:01.933Z,102317.25
2022-08-28T20:19:28.376Z,102310.31
2022-08-28T20:21:54.867Z,102313.03
2022-08-28T20:24:24.057Z,102311.63
2022-08-28T20:26:51.848Z,102320.25
2022-08-28T20:29:18.917Z,102321.06
2022-08-28T20:31:47.774Z,102318.75
2022-08-28T20:34:17.621Z,102322.63
2022-08-28T20:36:44.778Z,102312.78
2022-08-28T20:39:12.302Z,102314.06
2022-08-28T20:41:40.966Z,102318.97
2022-08-28T20:44:09.528Z,102319.03
2022-08-28T20:46:40.690Z,102320.00
2022-08-28T20:49:10.128Z,102313.88
2022-08-28T20:51:54.960Z,102316.13
2022-08-28T20:54:22.324Z,102317.47
2022-08-28T20:56:50.877Z,102321.94
2022-08-28T20:59:18.007Z,102325.78
2022-08-28T21:01:44.611Z,102322.94
2022-08-28T21:04:11.104Z,102324.47
2022-08-28T21:06:38.248Z,102330.88
2022-08-28T21:09:04.706Z,102336.63
2022-08-28T21:11:31.168Z,102333.91
2022-08-28T21:13:57.788Z,102331.34
2022-08-28T21:16:24.297Z,102328.69
2022-08-28T21:19:14.500Z,102333.44
2022-08-28T21:21:37.809Z,102329.03
2022-08-28T21:24:06.327Z,102328.16
2022-08-28T21:26:33.126Z,102329.34
2022-08-28T21:29:00.738Z,102319.47
2022-08-28T21:31:27.299Z,102323.53
2022-08-28T21:33:53.800Z,102331.03
2022-08-28T21:36:20.265Z,102328.09
2022-08-28T21:38:47.302Z,102329.91
2022-08-28T21:41:14.992Z,102322.47
2022-08-28T21:43:44.073Z,102323.66
2022-08-28T21:46:13.242Z,102324.50
2022-08-28T21:48:41.285Z,102329.75
2022-08-28T21:51:10.361Z,102322.09
2022-08-28T21:53:37.246Z,102332.78
2022-08-28T21:56:04.734Z,102326.56
2022-08-28T21:58:31.753Z,102330.94
2022-08-28T22:00:58.379Z,102331.19
2022-08-28T22:03:26.925Z,102326.56
2022-08-28T22:05:54.158Z,102334.03
2022-08-28T22:08:23.377Z,102338.66
2022-08-28T22:10:49.793Z,102330.31
2022-08-28T22:13:17.113Z,102337.84
2022-08-28T22:15:45.469Z,102334.97
2022-08-28T22:18:13.643Z,102337.00
2022-08-28T22:21:00.600Z,102337.75
2022-08-28T22:23:29.323Z,102336.13
2022-08-28T22:25:55.768Z,102345.50
2022-08-28T22:28:22.164Z,102338.53
2022-08-28T22:30:48.676Z,102340.47
2022-08-28T22:33:15.532Z,102335.03
2022-08-28T22:35:41.996Z,102341.13
2022-08-28T22:38:08.690Z,102335.41
2022-08-28T22:40:35.137Z,102332.06
2022-08-28T22:43:01.571Z,102333.63
2022-08-28T22:45:27.984Z,102340.22
2022-08-28T22:47:54.407Z,102333.34
2022-08-28T22:50:20.803Z,102329.28
2022-08-28T22:52:50.378Z,102329.94
2022-08-28T22:55:19.851Z,102328.28
2022-08-28T22:57:46.850Z,102328.75
2022-08-28T23:00:17.953Z,102324.81
2022-08-28T23:02:44.566Z,102325.16
2022-08-28T23:05:11.641Z,102331.63
2022-08-28T23:07:38.251Z,102334.38
2022-08-28T23:10:05.905Z,102314.22
2022-08-28T23:12:34.368Z,102321.69
2022-08-28T23:15:02.378Z,102328.34
2022-08-28T23:17:28.871Z,102332.28
2022-08-28T23:19:55.652Z,102322.47
2022-08-28T23:22:22.077Z,102322.28
2022-08-28T23:24:48.772Z,102321.47
2022-08-28T23:27:35.311Z,102321.34
2022-08-28T23:30:04.046Z,102323.06
2022-08-28T23:32:30.473Z,102315.72
2022-08-28T23:34:56.949Z,102306.41
2022-08-28T23:37:23.773Z,102308.00
2022-08-28T23:39:50.167Z,102302.41
2022-08-28T23:42:17.440Z,102303.91
2022-08-28T23:44:43.973Z,102304.59
2022-08-28T23:47:12.212Z,102302.75
2022-08-28T23:49:41.555Z,102305.19
2022-08-28T23:52:11.105Z,102300.63
2022-08-28T23:54:38.742Z,102301.69
2022-08-28T23:57:05.447Z,102295.13
2022-08-28T23:59:32.553Z,102297.75
